sensor_id;sensor_type;location;lat;lon;timestamp;temperature;humidity
5842;DHT22;2947;52.276;9.946;2023-05-19T00:00:57;10.40;99.90
5842;DHT22;2947;52.276;9.946;2023-05-19T00:03:24;10.30;99.90
5842;DHT22;2947;52.276;9.946;2023-05-19T00:05:53;10.30;99.90
5842;DHT22;2947;52.276;9.946;2023-05-19T00:08:19;10.30;99.90
5842;DHT22;2947;52.276;9.946;2023-05-19T00:10:47;10.30;99.90
5842;DHT22;2947;52.276;9.946;2023-05-19T00:13:13;10.30;99.90
5842;DHT22;2947;52.276;9.946;2023-05-19T00:15:39;10.30;99.90
5842;DHT22;2947;52.276;9.946;2023-05-19T00:18:05;10.20;99.90
5842;DHT22;2947;52.276;9.946;2023-05-19T00:20:33;10.20;99.90
5842;DHT22;2947;52.276;9.946;2023-05-19T00:22:58;10.20;99.90
5842;DHT22;2947;52.276;9.946;2023-05-19T00:25:24;10.10;99.90
5842;DHT22;2947;52.276;9.946;2023-05-19T00:27:50;10.10;99.90
5842;DHT22;2947;52.276;9.946;2023-05-19T00:30:16;10.10;99.90
5842;DHT22;2947;52.276;9.946;2023-05-19T00:32:41;10.10;99.90
5842;DHT22;2947;52.276;9.946;2023-05-19T00:35:07;10.10;99.90
5842;DHT22;2947;52.276;9.946;2023-05-19T00:37:33;10.10;99.90
5842;DHT22;2947;52.276;9.946;2023-05-19T00:39:59;10.00;99.90
5842;DHT22;2947;52.276;9.946;2023-05-19T00:42:25;10.00;99.90
5842;DHT22;2947;52.276;9.946;2023-05-19T00:44:51;10.00;99.90
5842;DHT22;2947;52.276;9.946;2023-05-19T00:47:16;10.00;99.90
5842;DHT22;2947;52.276;9.946;2023-05-19T00:49:42;10.00;99.90
5842;DHT22;2947;52.276;9.946;2023-05-19T00:52:08;10.00;99.90
5842;DHT22;2947;52.276;9.946;2023-05-19T00:54:33;10.00;99.90
5842;DHT22;2947;52.276;9.946;2023-05-19T00:57:01;10.00;99.90
5842;DHT22;2947;52.276;9.946;2023-05-19T00:59:28;10.00;99.90
5842;DHT22;2947;52.276;9.946;2023-05-19T01:01:54;10.00;99.90
5842;DHT22;2947;52.276;9.946;2023-05-19T01:04:21;10.00;99.90
5842;DHT22;2947;52.276;9.946;2023-05-19T01:06:50;10.00;99.90
5842;DHT22;2947;52.276;9.946;2023-05-19T01:09:22;10.00;99.90
5842;DHT22;2947;52.276;9.946;2023-05-19T01:11:49;10.00;99.90
5842;DHT22;2947;52.276;9.946;2023-05-19T01:14:15;10.00;99.90
5842;DHT22;2947;52.276;9.946;2023-05-19T01:17:03;9.90;99.90
5842;DHT22;2947;52.276;9.946;2023-05-19T01:19:59;10.00;99.90
5842;DHT22;2947;52.276;9.946;2023-05-19T01:25:52;10.00;99.90
5842;DHT22;2947;52.276;9.946;2023-05-19T01:31:08;10.00;99.90
5842;DHT22;2947;52.276;9.946;2023-05-19T01:33:37;9.90;99.90
5842;DHT22;2947;52.276;9.946;2023-05-19T01:36:06;9.90;99.90
5842;DHT22;2947;52.276;9.946;2023-05-19T01:38:33;9.90;99.90
5842;DHT22;2947;52.276;9.946;2023-05-19T01:41:02;9.90;99.90
5842;DHT22;2947;52.276;9.946;2023-05-19T01:43:28;9.80;99.90
5842;DHT22;2947;52.276;9.946;2023-05-19T01:45:55;9.80;99.90
5842;DHT22;2947;52.276;9.946;2023-05-19T01:48:23;9.80;99.90
5842;DHT22;2947;52.276;9.946;2023-05-19T01:50:50;9.80;99.90
5842;DHT22;2947;52.276;9.946;2023-05-19T01:53:16;9.70;99.90
5842;DHT22;2947;52.276;9.946;2023-05-19T01:55:48;9.70;99.90
5842;DHT22;2947;52.276;9.946;2023-05-19T01:58:43;9.70;1.00
5842;DHT22;2947;52.276;9.946;2023-05-19T02:01:20;9.60;1.00
5842;DHT22;2947;52.276;9.946;2023-05-19T02:04:44;9.50;1.00
5842;DHT22;2947;52.276;9.946;2023-05-19T02:10:22;9.50;1.00
5842;DHT22;2947;52.276;9.946;2023-05-19T02:12:53;9.50;57.20
5842;DHT22;2947;52.276;9.946;2023-05-19T02:15:23;9.50;99.90
5842;DHT22;2947;52.276;9.946;2023-05-19T02:17:52;9.40;99.90
5842;DHT22;2947;52.276;9.946;2023-05-19T02:20:19;9.40;99.90
5842;DHT22;2947;52.276;9.946;2023-05-19T02:22:47;9.40;99.90
5842;DHT22;2947;52.276;9.946;2023-05-19T02:25:13;9.30;99.90
5842;DHT22;2947;52.276;9.946;2023-05-19T02:27:41;9.30;1.00
5842;DHT22;2947;52.276;9.946;2023-05-19T02:30:08;9.40;99.90
5842;DHT22;2947;52.276;9.946;2023-05-19T02:32:34;9.30;1.00
5842;DHT22;2947;52.276;9.946;2023-05-19T02:35:01;9.30;1.00
5842;DHT22;2947;52.276;9.946;2023-05-19T02:37:27;9.20;99.90
5842;DHT22;2947;52.276;9.946;2023-05-19T02:39:54;9.30;99.90
5842;DHT22;2947;52.276;9.946;2023-05-19T02:42:20;9.30;99.90
5842;DHT22;2947;52.276;9.946;2023-05-19T02:44:46;9.30;99.90
5842;DHT22;2947;52.276;9.946;2023-05-19T02:47:12;9.30;99.90
5842;DHT22;2947;52.276;9.946;2023-05-19T02:49:38;9.20;1.00
5842;DHT22;2947;52.276;9.946;2023-05-19T02:52:04;9.20;1.00
5842;DHT22;2947;52.276;9.946;2023-05-19T02:54:32;9.20;1.00
5842;DHT22;2947;52.276;9.946;2023-05-19T02:56:58;9.10;1.00
5842;DHT22;2947;52.276;9.946;2023-05-19T02:59:24;9.20;99.90
5842;DHT22;2947;52.276;9.946;2023-05-19T03:01:59;9.20;99.90
5842;DHT22;2947;52.276;9.946;2023-05-19T03:04:26;9.10;99.90
5842;DHT22;2947;52.276;9.946;2023-05-19T03:06:52;9.10;99.90
5842;DHT22;2947;52.276;9.946;2023-05-19T03:09:18;9.10;99.90
5842;DHT22;2947;52.276;9.946;2023-05-19T03:11:44;9.10;1.00
5842;DHT22;2947;52.276;9.946;2023-05-19T03:14:10;9.10;1.00
5842;DHT22;2947;52.276;9.946;2023-05-19T03:16:37;9.10;1.00
5842;DHT22;2947;52.276;9.946;2023-05-19T03:19:05;9.00;1.00
5842;DHT22;2947;52.276;9.946;2023-05-19T03:21:31;9.00;1.00
5842;DHT22;2947;52.276;9.946;2023-05-19T03:23:59;9.10;1.00
5842;DHT22;2947;52.276;9.946;2023-05-19T03:26:25;9.10;10.30
5842;DHT22;2947;52.276;9.946;2023-05-19T03:28:51;9.10;1.00
5842;DHT22;2947;52.276;9.946;2023-05-19T03:31:17;9.00;99.90
5842;DHT22;2947;52.276;9.946;2023-05-19T03:33:43;9.00;99.90
5842;DHT22;2947;52.276;9.946;2023-05-19T03:36:10;9.00;1.00
5842;DHT22;2947;52.276;9.946;2023-05-19T03:38:36;9.00;1.00
5842;DHT22;2947;52.276;9.946;2023-05-19T03:41:02;9.00;96.80
5842;DHT22;2947;52.276;9.946;2023-05-19T03:43:28;8.90;99.90
5842;DHT22;2947;52.276;9.946;2023-05-19T03:45:54;8.90;99.90
5842;DHT22;2947;52.276;9.946;2023-05-19T03:48:20;8.90;99.90
5842;DHT22;2947;52.276;9.946;2023-05-19T03:50:46;8.80;99.90
5842;DHT22;2947;52.276;9.946;2023-05-19T03:53:12;8.80;1.00
5842;DHT22;2947;52.276;9.946;2023-05-19T03:55:38;8.70;99.90
5842;DHT22;2947;52.276;9.946;2023-05-19T03:58:04;8.80;1.00
5842;DHT22;2947;52.276;9.946;2023-05-19T04:00:29;8.70;99.90
5842;DHT22;2947;52.276;9.946;2023-05-19T04:02:55;8.70;99.90
5842;DHT22;2947;52.276;9.946;2023-05-19T04:05:21;8.60;99.90
5842;DHT22;2947;52.276;9.946;2023-05-19T04:07:47;8.60;1.00
5842;DHT22;2947;52.276;9.946;2023-05-19T04:10:12;8.60;1.00
5842;DHT22;2947;52.276;9.946;2023-05-19T04:12:38;8.70;26.70
5842;DHT22;2947;52.276;9.946;2023-05-19T04:15:04;8.70;75.20
5842;DHT22;2947;52.276;9.946;2023-05-19T04:17:31;8.70;1.00
5842;DHT22;2947;52.276;9.946;2023-05-19T04:19:56;8.70;99.90
5842;DHT22;2947;52.276;9.946;2023-05-19T04:22:22;8.70;99.90
5842;DHT22;2947;52.276;9.946;2023-05-19T04:24:48;8.70;55.60
5842;DHT22;2947;52.276;9.946;2023-05-19T04:27:15;8.70;1.00
5842;DHT22;2947;52.276;9.946;2023-05-19T04:29:42;8.70;99.90
5842;DHT22;2947;52.276;9.946;2023-05-19T04:32:10;8.80;99.90
5842;DHT22;2947;52.276;9.946;2023-05-19T04:34:36;8.80;99.90
5842;DHT22;2947;52.276;9.946;2023-05-19T04:37:06;8.80;7.30
5842;DHT22;2947;52.276;9.946;2023-05-19T04:39:32;8.80;99.90
5842;DHT22;2947;52.276;9.946;2023-05-19T04:41:57;8.80;1.00
5842;DHT22;2947;52.276;9.946;2023-05-19T04:44:24;8.80;99.90
5842;DHT22;2947;52.276;9.946;2023-05-19T04:46:50;8.80;99.90
5842;DHT22;2947;52.276;9.946;2023-05-19T04:49:19;8.90;99.90
5842;DHT22;2947;52.276;9.946;2023-05-19T04:51:45;8.90;1.00
5842;DHT22;2947;52.276;9.946;2023-05-19T04:54:14;9.00;99.90
5842;DHT22;2947;52.276;9.946;2023-05-19T04:56:40;9.00;34.80
5842;DHT22;2947;52.276;9.946;2023-05-19T04:59:06;9.00;99.90
5842;DHT22;2947;52.276;9.946;2023-05-19T05:01:34;9.00;99.90
5842;DHT22;2947;52.276;9.946;2023-05-19T05:04:04;9.00;99.90
5842;DHT22;2947;52.276;9.946;2023-05-19T05:06:31;9.10;99.90
5842;DHT22;2947;52.276;9.946;2023-05-19T05:08:57;9.10;99.90
5842;DHT22;2947;52.276;9.946;2023-05-19T05:11:23;9.10;99.90
5842;DHT22;2947;52.276;9.946;2023-05-19T05:13:48;8.70;99.90
5842;DHT22;2947;52.276;9.946;2023-05-19T05:16:15;9.20;99.90
5842;DHT22;2947;52.276;9.946;2023-05-19T05:18:41;9.20;99.90
5842;DHT22;2947;52.276;9.946;2023-05-19T05:21:07;9.20;99.90
5842;DHT22;2947;52.276;9.946;2023-05-19T05:23:33;9.30;99.90
5842;DHT22;2947;52.276;9.946;2023-05-19T05:26:08;9.40;99.90
5842;DHT22;2947;52.276;9.946;2023-05-19T05:28:35;9.40;99.90
5842;DHT22;2947;52.276;9.946;2023-05-19T05:31:01;9.50;99.90
5842;DHT22;2947;52.276;9.946;2023-05-19T05:33:27;9.60;31.60
5842;DHT22;2947;52.276;9.946;2023-05-19T05:35:52;9.60;99.90
5842;DHT22;2947;52.276;9.946;2023-05-19T05:38:18;9.70;99.90
5842;DHT22;2947;52.276;9.946;2023-05-19T05:40:44;9.80;99.90
5842;DHT22;2947;52.276;9.946;2023-05-19T05:43:10;9.90;27.60
5842;DHT22;2947;52.276;9.946;2023-05-19T05:45:35;10.10;1.00
5842;DHT22;2947;52.276;9.946;2023-05-19T05:48:01;10.20;1.00
5842;DHT22;2947;52.276;9.946;2023-05-19T05:50:27;10.30;1.00
5842;DHT22;2947;52.276;9.946;2023-05-19T05:52:54;10.50;1.00
5842;DHT22;2947;52.276;9.946;2023-05-19T05:55:20;10.70;66.40
5842;DHT22;2947;52.276;9.946;2023-05-19T05:57:47;10.80;1.00
5842;DHT22;2947;52.276;9.946;2023-05-19T06:00:15;11.00;1.00
5842;DHT22;2947;52.276;9.946;2023-05-19T06:02:43;11.10;1.00
5842;DHT22;2947;52.276;9.946;2023-05-19T06:05:10;11.30;99.90
5842;DHT22;2947;52.276;9.946;2023-05-19T06:07:37;11.40;1.00
5842;DHT22;2947;52.276;9.946;2023-05-19T06:10:04;11.50;29.10
5842;DHT22;2947;52.276;9.946;2023-05-19T06:12:30;11.70;99.90
5842;DHT22;2947;52.276;9.946;2023-05-19T06:14:57;11.80;97.70
5842;DHT22;2947;52.276;9.946;2023-05-19T06:17:23;11.90;1.00
5842;DHT22;2947;52.276;9.946;2023-05-19T06:19:48;12.00;1.00
5842;DHT22;2947;52.276;9.946;2023-05-19T06:22:14;12.20;1.00
5842;DHT22;2947;52.276;9.946;2023-05-19T06:24:40;12.40;99.90
5842;DHT22;2947;52.276;9.946;2023-05-19T06:27:06;12.50;1.00
5842;DHT22;2947;52.276;9.946;2023-05-19T06:29:31;12.50;1.00
5842;DHT22;2947;52.276;9.946;2023-05-19T06:31:58;12.60;1.00
5842;DHT22;2947;52.276;9.946;2023-05-19T06:34:23;12.80;1.00
5842;DHT22;2947;52.276;9.946;2023-05-19T06:36:49;13.00;1.00
5842;DHT22;2947;52.276;9.946;2023-05-19T06:39:15;13.20;99.90
5842;DHT22;2947;52.276;9.946;2023-05-19T06:41:40;13.30;99.90
5842;DHT22;2947;52.276;9.946;2023-05-19T06:44:06;13.50;99.90
5842;DHT22;2947;52.276;9.946;2023-05-19T06:46:35;13.60;99.90
5842;DHT22;2947;52.276;9.946;2023-05-19T06:49:01;13.50;19.00
5842;DHT22;2947;52.276;9.946;2023-05-19T06:51:26;13.60;26.00
5842;DHT22;2947;52.276;9.946;2023-05-19T06:53:52;13.70;1.00
5842;DHT22;2947;52.276;9.946;2023-05-19T06:56:20;13.80;1.00
5842;DHT22;2947;52.276;9.946;2023-05-19T06:58:47;13.90;1.00
5842;DHT22;2947;52.276;9.946;2023-05-19T07:01:12;14.00;1.00
5842;DHT22;2947;52.276;9.946;2023-05-19T07:03:38;14.00;1.00
5842;DHT22;2947;52.276;9.946;2023-05-19T07:06:04;14.10;1.00
5842;DHT22;2947;52.276;9.946;2023-05-19T07:08:30;14.20;1.00
5842;DHT22;2947;52.276;9.946;2023-05-19T07:10:56;14.30;1.00
5842;DHT22;2947;52.276;9.946;2023-05-19T07:13:21;14.30;1.00
5842;DHT22;2947;52.276;9.946;2023-05-19T07:15:47;14.30;1.00
5842;DHT22;2947;52.276;9.946;2023-05-19T07:18:13;14.40;1.00
5842;DHT22;2947;52.276;9.946;2023-05-19T07:20:40;14.50;1.00
5842;DHT22;2947;52.276;9.946;2023-05-19T07:23:06;14.50;99.90
5842;DHT22;2947;52.276;9.946;2023-05-19T07:25:31;14.60;99.90
5842;DHT22;2947;52.276;9.946;2023-05-19T07:27:58;14.60;99.90
5842;DHT22;2947;52.276;9.946;2023-05-19T07:30:25;14.70;99.90
5842;DHT22;2947;52.276;9.946;2023-05-19T07:32:51;14.80;99.90
5842;DHT22;2947;52.276;9.946;2023-05-19T07:35:19;14.90;99.90
5842;DHT22;2947;52.276;9.946;2023-05-19T07:37:47;15.10;99.90
5842;DHT22;2947;52.276;9.946;2023-05-19T07:40:13;15.00;99.90
5842;DHT22;2947;52.276;9.946;2023-05-19T07:42:40;15.20;99.90
5842;DHT22;2947;52.276;9.946;2023-05-19T07:45:06;15.20;99.90
5842;DHT22;2947;52.276;9.946;2023-05-19T07:47:32;15.30;99.90
5842;DHT22;2947;52.276;9.946;2023-05-19T07:49:57;15.40;99.90
5842;DHT22;2947;52.276;9.946;2023-05-19T07:52:24;15.50;99.90
5842;DHT22;2947;52.276;9.946;2023-05-19T07:54:51;15.70;99.90
5842;DHT22;2947;52.276;9.946;2023-05-19T07:57:17;15.80;99.90
5842;DHT22;2947;52.276;9.946;2023-05-19T07:59:43;15.80;99.90
5842;DHT22;2947;52.276;9.946;2023-05-19T08:02:09;15.90;99.90
5842;DHT22;2947;52.276;9.946;2023-05-19T08:04:35;15.90;99.90
5842;DHT22;2947;52.276;9.946;2023-05-19T08:07:00;16.10;99.90
5842;DHT22;2947;52.276;9.946;2023-05-19T08:09:26;16.20;99.90
5842;DHT22;2947;52.276;9.946;2023-05-19T08:11:52;16.30;99.90
5842;DHT22;2947;52.276;9.946;2023-05-19T08:14:18;16.40;99.90
5842;DHT22;2947;52.276;9.946;2023-05-19T08:16:46;16.60;99.90
5842;DHT22;2947;52.276;9.946;2023-05-19T08:19:12;16.70;99.90
5842;DHT22;2947;52.276;9.946;2023-05-19T08:21:38;16.70;99.90
5842;DHT22;2947;52.276;9.946;2023-05-19T08:24:03;16.90;99.90
5842;DHT22;2947;52.276;9.946;2023-05-19T08:26:29;17.00;99.90
5842;DHT22;2947;52.276;9.946;2023-05-19T08:28:55;17.00;99.90
5842;DHT22;2947;52.276;9.946;2023-05-19T08:31:21;17.20;99.90
5842;DHT22;2947;52.276;9.946;2023-05-19T08:33:47;17.20;99.90
5842;DHT22;2947;52.276;9.946;2023-05-19T08:36:13;17.30;99.90
5842;DHT22;2947;52.276;9.946;2023-05-19T08:38:39;17.30;99.90
5842;DHT22;2947;52.276;9.946;2023-05-19T08:41:05;17.40;99.90
5842;DHT22;2947;52.276;9.946;2023-05-19T08:43:30;17.40;99.90
5842;DHT22;2947;52.276;9.946;2023-05-19T08:45:58;17.40;99.90
5842;DHT22;2947;52.276;9.946;2023-05-19T08:48:28;17.50;99.90
5842;DHT22;2947;52.276;9.946;2023-05-19T08:51:23;17.70;99.90
5842;DHT22;2947;52.276;9.946;2023-05-19T08:53:55;17.80;99.90
5842;DHT22;2947;52.276;9.946;2023-05-19T08:56:24;17.90;99.90
5842;DHT22;2947;52.276;9.946;2023-05-19T08:58:52;18.10;99.90
5842;DHT22;2947;52.276;9.946;2023-05-19T09:01:18;18.30;99.90
5842;DHT22;2947;52.276;9.946;2023-05-19T09:03:45;18.50;99.90
5842;DHT22;2947;52.276;9.946;2023-05-19T09:06:14;18.50;99.90
5842;DHT22;2947;52.276;9.946;2023-05-19T09:08:41;18.50;99.90
5842;DHT22;2947;52.276;9.946;2023-05-19T09:11:10;18.50;99.90
5842;DHT22;2947;52.276;9.946;2023-05-19T09:13:36;18.70;99.90
5842;DHT22;2947;52.276;9.946;2023-05-19T09:16:03;18.80;99.90
5842;DHT22;2947;52.276;9.946;2023-05-19T09:18:29;18.80;99.90
5842;DHT22;2947;52.276;9.946;2023-05-19T09:21:01;18.80;99.90
5842;DHT22;2947;52.276;9.946;2023-05-19T09:23:31;19.00;99.90
5842;DHT22;2947;52.276;9.946;2023-05-19T09:26:02;18.90;99.90
5842;DHT22;2947;52.276;9.946;2023-05-19T09:28:33;19.10;99.90
5842;DHT22;2947;52.276;9.946;2023-05-19T09:31:05;18.90;99.90
5842;DHT22;2947;52.276;9.946;2023-05-19T09:33:33;19.00;99.90
5842;DHT22;2947;52.276;9.946;2023-05-19T09:36:00;19.20;99.90
5842;DHT22;2947;52.276;9.946;2023-05-19T09:38:30;19.00;99.90
5842;DHT22;2947;52.276;9.946;2023-05-19T09:40:57;18.90;99.90
5842;DHT22;2947;52.276;9.946;2023-05-19T09:43:28;19.10;99.90
5842;DHT22;2947;52.276;9.946;2023-05-19T09:46:04;19.20;99.90
5842;DHT22;2947;52.276;9.946;2023-05-19T09:48:31;19.30;99.90
5842;DHT22;2947;52.276;9.946;2023-05-19T09:50:59;19.40;99.90
5842;DHT22;2947;52.276;9.946;2023-05-19T09:53:25;19.60;99.90
5842;DHT22;2947;52.276;9.946;2023-05-19T09:55:54;19.60;99.90
5842;DHT22;2947;52.276;9.946;2023-05-19T09:58:24;19.60;99.90
5842;DHT22;2947;52.276;9.946;2023-05-19T10:00:52;19.60;99.90
5842;DHT22;2947;52.276;9.946;2023-05-19T10:03:22;19.70;99.90
5842;DHT22;2947;52.276;9.946;2023-05-19T10:05:49;19.80;99.90
5842;DHT22;2947;52.276;9.946;2023-05-19T10:08:15;20.00;99.90
5842;DHT22;2947;52.276;9.946;2023-05-19T10:10:43;20.00;99.90
5842;DHT22;2947;52.276;9.946;2023-05-19T10:13:11;20.20;99.90
5842;DHT22;2947;52.276;9.946;2023-05-19T10:15:37;20.20;99.90
5842;DHT22;2947;52.276;9.946;2023-05-19T10:18:06;20.20;99.90
5842;DHT22;2947;52.276;9.946;2023-05-19T10:20:33;20.00;99.90
5842;DHT22;2947;52.276;9.946;2023-05-19T10:23:00;20.00;99.90
5842;DHT22;2947;52.276;9.946;2023-05-19T10:25:29;20.10;99.90
5842;DHT22;2947;52.276;9.946;2023-05-19T10:28:01;20.20;99.90
5842;DHT22;2947;52.276;9.946;2023-05-19T10:30:36;20.30;99.90
5842;DHT22;2947;52.276;9.946;2023-05-19T10:33:06;20.20;99.90
5842;DHT22;2947;52.276;9.946;2023-05-19T10:36:01;20.10;99.90
5842;DHT22;2947;52.276;9.946;2023-05-19T10:38:57;20.00;99.90
5842;DHT22;2947;52.276;9.946;2023-05-19T10:41:36;20.10;99.90
5842;DHT22;2947;52.276;9.946;2023-05-19T10:46:59;20.40;99.90
5842;DHT22;2947;52.276;9.946;2023-05-19T10:49:25;20.70;99.90
5842;DHT22;2947;52.276;9.946;2023-05-19T10:51:53;20.50;99.90
5842;DHT22;2947;52.276;9.946;2023-05-19T10:54:40;20.40;99.90
5842;DHT22;2947;52.276;9.946;2023-05-19T10:57:07;20.20;99.90
5842;DHT22;2947;52.276;9.946;2023-05-19T10:59:36;20.00;99.90
5842;DHT22;2947;52.276;9.946;2023-05-19T11:02:07;19.90;99.90
5842;DHT22;2947;52.276;9.946;2023-05-19T11:04:45;20.00;99.90
5842;DHT22;2947;52.276;9.946;2023-05-19T11:07:19;20.10;99.90
5842;DHT22;2947;52.276;9.946;2023-05-19T11:09:52;20.10;99.90
5842;DHT22;2947;52.276;9.946;2023-05-19T11:12:22;20.20;99.90
5842;DHT22;2947;52.276;9.946;2023-05-19T11:14:51;20.00;99.90
5842;DHT22;2947;52.276;9.946;2023-05-19T11:17:18;20.10;99.90
5842;DHT22;2947;52.276;9.946;2023-05-19T11:19:55;20.10;99.90
5842;DHT22;2947;52.276;9.946;2023-05-19T11:22:23;20.20;99.90
5842;DHT22;2947;52.276;9.946;2023-05-19T11:24:50;20.10;99.90
5842;DHT22;2947;52.276;9.946;2023-05-19T11:27:36;19.90;99.10
5842;DHT22;2947;52.276;9.946;2023-05-19T11:32:32;19.90;97.70
5842;DHT22;2947;52.276;9.946;2023-05-19T11:34:59;19.80;96.40
5842;DHT22;2947;52.276;9.946;2023-05-19T11:37:26;19.90;98.40
5842;DHT22;2947;52.276;9.946;2023-05-19T11:39:55;20.00;97.50
5842;DHT22;2947;52.276;9.946;2023-05-19T11:42:21;20.20;98.60
5842;DHT22;2947;52.276;9.946;2023-05-19T11:44:48;20.30;98.10
5842;DHT22;2947;52.276;9.946;2023-05-19T11:47:15;20.30;99.50
5842;DHT22;2947;52.276;9.946;2023-05-19T11:49:47;20.30;97.00
5842;DHT22;2947;52.276;9.946;2023-05-19T11:52:13;20.40;98.30
5842;DHT22;2947;52.276;9.946;2023-05-19T11:54:39;20.50;98.00
5842;DHT22;2947;52.276;9.946;2023-05-19T11:57:07;20.60;98.90
5842;DHT22;2947;52.276;9.946;2023-05-19T11:59:37;20.70;98.90
5842;DHT22;2947;52.276;9.946;2023-05-19T12:02:23;20.80;98.50
5842;DHT22;2947;52.276;9.946;2023-05-19T12:04:50;20.90;99.30
5842;DHT22;2947;52.276;9.946;2023-05-19T12:07:18;21.10;98.80
5842;DHT22;2947;52.276;9.946;2023-05-19T12:09:48;21.00;97.90
5842;DHT22;2947;52.276;9.946;2023-05-19T12:12:21;21.10;99.10
5842;DHT22;2947;52.276;9.946;2023-05-19T12:14:51;21.40;99.90
5842;DHT22;2947;52.276;9.946;2023-05-19T12:17:18;21.50;99.90
5842;DHT22;2947;52.276;9.946;2023-05-19T12:19:46;21.40;99.90
5842;DHT22;2947;52.276;9.946;2023-05-19T12:22:18;21.40;99.90
5842;DHT22;2947;52.276;9.946;2023-05-19T12:24:46;21.40;99.70
5842;DHT22;2947;52.276;9.946;2023-05-19T12:27:16;21.50;99.90
5842;DHT22;2947;52.276;9.946;2023-05-19T12:29:51;21.40;99.90
5842;DHT22;2947;52.276;9.946;2023-05-19T12:32:22;21.40;99.00
5842;DHT22;2947;52.276;9.946;2023-05-19T12:34:49;21.40;99.60
5842;DHT22;2947;52.276;9.946;2023-05-19T12:37:15;21.20;97.60
5842;DHT22;2947;52.276;9.946;2023-05-19T12:39:41;21.10;95.90
5842;DHT22;2947;52.276;9.946;2023-05-19T12:42:09;21.10;95.00
5842;DHT22;2947;52.276;9.946;2023-05-19T12:44:47;20.90;93.60
5842;DHT22;2947;52.276;9.946;2023-05-19T12:47:16;21.00;94.70
5842;DHT22;2947;52.276;9.946;2023-05-19T12:50:13;20.80;92.70
5842;DHT22;2947;52.276;9.946;2023-05-19T12:52:47;20.70;90.10
5842;DHT22;2947;52.276;9.946;2023-05-19T12:55:16;20.60;85.90
5842;DHT22;2947;52.276;9.946;2023-05-19T12:57:46;20.60;88.10
5842;DHT22;2947;52.276;9.946;2023-05-19T13:00:15;20.60;88.30
5842;DHT22;2947;52.276;9.946;2023-05-19T13:03:08;20.50;85.00
5842;DHT22;2947;52.276;9.946;2023-05-19T13:05:41;20.60;86.80
5842;DHT22;2947;52.276;9.946;2023-05-19T13:08:13;20.70;89.50
5842;DHT22;2947;52.276;9.946;2023-05-19T13:10:42;20.60;87.70
5842;DHT22;2947;52.276;9.946;2023-05-19T13:13:09;20.60;83.90
5842;DHT22;2947;52.276;9.946;2023-05-19T13:15:43;20.40;81.60
5842;DHT22;2947;52.276;9.946;2023-05-19T13:18:11;20.30;79.00
5842;DHT22;2947;52.276;9.946;2023-05-19T13:20:38;20.30;79.30
5842;DHT22;2947;52.276;9.946;2023-05-19T13:23:05;20.30;77.30
5842;DHT22;2947;52.276;9.946;2023-05-19T13:25:33;20.30;78.70
5842;DHT22;2947;52.276;9.946;2023-05-19T13:28:00;20.20;77.80
5842;DHT22;2947;52.276;9.946;2023-05-19T13:30:32;20.20;77.50
5842;DHT22;2947;52.276;9.946;2023-05-19T13:32:58;20.30;78.00
5842;DHT22;2947;52.276;9.946;2023-05-19T13:35:24;20.20;75.80
5842;DHT22;2947;52.276;9.946;2023-05-19T13:37:50;20.30;77.80
5842;DHT22;2947;52.276;9.946;2023-05-19T13:40:16;20.10;73.60
5842;DHT22;2947;52.276;9.946;2023-05-19T13:42:42;20.00;71.20
5842;DHT22;2947;52.276;9.946;2023-05-19T13:45:09;20.00;69.60
5842;DHT22;2947;52.276;9.946;2023-05-19T13:47:34;20.00;69.70
5842;DHT22;2947;52.276;9.946;2023-05-19T13:50:01;20.00;70.30
5842;DHT22;2947;52.276;9.946;2023-05-19T13:52:28;20.00;71.00
5842;DHT22;2947;52.276;9.946;2023-05-19T13:54:54;19.80;67.40
5842;DHT22;2947;52.276;9.946;2023-05-19T13:57:22;20.00;70.70
5842;DHT22;2947;52.276;9.946;2023-05-19T13:59:47;20.10;72.60
5842;DHT22;2947;52.276;9.946;2023-05-19T14:02:13;20.30;73.30
5842;DHT22;2947;52.276;9.946;2023-05-19T14:04:39;20.10;71.80
5842;DHT22;2947;52.276;9.946;2023-05-19T14:07:05;20.10;71.60
5842;DHT22;2947;52.276;9.946;2023-05-19T14:09:32;20.20;70.60
5842;DHT22;2947;52.276;9.946;2023-05-19T14:11:58;20.30;73.80
5842;DHT22;2947;52.276;9.946;2023-05-19T14:14:23;20.30;74.90
5842;DHT22;2947;52.276;9.946;2023-05-19T14:16:49;20.30;73.60
5842;DHT22;2947;52.276;9.946;2023-05-19T14:19:15;20.30;71.10
5842;DHT22;2947;52.276;9.946;2023-05-19T14:21:41;20.40;74.70
5842;DHT22;2947;52.276;9.946;2023-05-19T14:24:06;20.50;76.00
5842;DHT22;2947;52.276;9.946;2023-05-19T14:26:32;20.30;72.50
5842;DHT22;2947;52.276;9.946;2023-05-19T14:28:58;20.30;70.30
5842;DHT22;2947;52.276;9.946;2023-05-19T14:31:23;20.30;70.00
5842;DHT22;2947;52.276;9.946;2023-05-19T14:33:51;20.30;70.20
5842;DHT22;2947;52.276;9.946;2023-05-19T14:36:17;20.30;71.10
5842;DHT22;2947;52.276;9.946;2023-05-19T14:38:43;20.30;70.60
5842;DHT22;2947;52.276;9.946;2023-05-19T14:41:09;20.30;72.90
5842;DHT22;2947;52.276;9.946;2023-05-19T14:43:34;20.30;72.00
5842;DHT22;2947;52.276;9.946;2023-05-19T14:46:00;20.30;71.80
5842;DHT22;2947;52.276;9.946;2023-05-19T14:48:26;20.30;70.80
5842;DHT22;2947;52.276;9.946;2023-05-19T14:50:52;20.30;71.10
5842;DHT22;2947;52.276;9.946;2023-05-19T14:53:18;20.20;68.70
5842;DHT22;2947;52.276;9.946;2023-05-19T14:55:46;20.20;70.10
5842;DHT22;2947;52.276;9.946;2023-05-19T14:58:11;20.20;68.50
5842;DHT22;2947;52.276;9.946;2023-05-19T15:00:38;20.20;69.50
5842;DHT22;2947;52.276;9.946;2023-05-19T15:03:04;20.20;69.20
5842;DHT22;2947;52.276;9.946;2023-05-19T15:05:29;20.30;91.10
5842;DHT22;2947;52.276;9.946;2023-05-19T15:07:55;20.30;72.10
5842;DHT22;2947;52.276;9.946;2023-05-19T15:10:23;20.30;71.70
5842;DHT22;2947;52.276;9.946;2023-05-19T15:12:49;20.20;68.70
5842;DHT22;2947;52.276;9.946;2023-05-19T15:15:15;20.20;69.00
5842;DHT22;2947;52.276;9.946;2023-05-19T15:17:41;20.10;67.60
5842;DHT22;2947;52.276;9.946;2023-05-19T15:20:08;20.20;68.20
5842;DHT22;2947;52.276;9.946;2023-05-19T15:22:34;20.10;67.60
5842;DHT22;2947;52.276;9.946;2023-05-19T15:24:59;20.10;66.50
5842;DHT22;2947;52.276;9.946;2023-05-19T15:27:26;20.00;65.20
5842;DHT22;2947;52.276;9.946;2023-05-19T15:29:51;20.00;64.80
5842;DHT22;2947;52.276;9.946;2023-05-19T15:32:17;20.20;66.80
5842;DHT22;2947;52.276;9.946;2023-05-19T15:34:43;20.30;69.50
5842;DHT22;2947;52.276;9.946;2023-05-19T15:37:09;20.20;69.40
5842;DHT22;2947;52.276;9.946;2023-05-19T15:39:35;20.20;68.70
5842;DHT22;2947;52.276;9.946;2023-05-19T15:42:00;20.20;69.60
5842;DHT22;2947;52.276;9.946;2023-05-19T15:44:26;20.20;71.00
5842;DHT22;2947;52.276;9.946;2023-05-19T15:46:52;20.10;65.70
5842;DHT22;2947;52.276;9.946;2023-05-19T15:49:18;19.90;62.80
5842;DHT22;2947;52.276;9.946;2023-05-19T15:51:44;19.80;60.60
5842;DHT22;2947;52.276;9.946;2023-05-19T15:54:10;19.90;62.10
5842;DHT22;2947;52.276;9.946;2023-05-19T15:56:35;19.90;62.20
5842;DHT22;2947;52.276;9.946;2023-05-19T15:59:01;19.90;63.40
5842;DHT22;2947;52.276;9.946;2023-05-19T16:01:27;19.90;61.90
5842;DHT22;2947;52.276;9.946;2023-05-19T16:03:53;19.90;62.80
5842;DHT22;2947;52.276;9.946;2023-05-19T16:06:19;19.90;63.80
5842;DHT22;2947;52.276;9.946;2023-05-19T16:08:45;19.80;61.50
5842;DHT22;2947;52.276;9.946;2023-05-19T16:11:10;19.90;62.00
5842;DHT22;2947;52.276;9.946;2023-05-19T16:13:36;19.90;73.70
5842;DHT22;2947;52.276;9.946;2023-05-19T16:16:02;19.90;63.40
5842;DHT22;2947;52.276;9.946;2023-05-19T16:18:28;19.90;63.20
5842;DHT22;2947;52.276;9.946;2023-05-19T16:20:54;19.90;63.60
5842;DHT22;2947;52.276;9.946;2023-05-19T16:23:20;19.90;63.00
5842;DHT22;2947;52.276;9.946;2023-05-19T16:25:47;19.80;62.80